Time;durP1;ratioP1;P1;durP2;ratioP2;P2;SDS_P1;SDS_P2;PMS_P1;PMS_P2;Temp;Humidity;BMP_temperature;BMP_pressure;BME280_temperature;BME280_humidity;BME280_pressure;Samples;Min_cycle;Max_cycle;Signal;HPM_P1;HPM_P2
2022/12/19 00:01:21;;;;;;;7.70;6.57;;;;;;;;;;5013910;28;20410;-80
2022/12/19 00:03:48;;;;;;;12.60;7.50;;;;;;;;;;5013873;28;21013;-80
2022/12/19 00:06:15;;;;;;;16.73;6.80;;;;;;;;;;5029115;28;20432;-80
2022/12/19 00:08:42;;;;;;;15.70;7.90;;;;;;;;;;5028950;28;20424;-80
2022/12/19 00:11:09;;;;;;;11.53;7.40;;;;;;;;;;5028708;28;20428;-80
2022/12/19 00:13:35;;;;;;;8.17;4.17;;;;;;;;;;5028134;28;20556;-80
2022/12/19 00:16:02;;;;;;;10.50;6.80;;;;;;;;;;5028938;28;20441;-81
2022/12/19 00:18:28;;;;;;;7.60;6.80;;;;;;;;;;5028196;28;20425;-80
2022/12/19 00:20:55;;;;;;;14.97;7.60;;;;;;;;;;5028862;28;20430;-80
2022/12/19 00:23:21;;;;;;;15.77;10.37;;;;;;;;;;5013478;28;20474;-80
2022/12/19 00:25:47;;;;;;;8.60;5.53;;;;;;;;;;5013269;28;20417;-80
2022/12/19 00:28:13;;;;;;;7.10;5.67;;;;;;;;;;5028712;28;20416;-80
2022/12/19 00:30:39;;;;;;;14.77;6.80;;;;;;;;;;5013418;28;20461;-80
2022/12/19 00:33:04;;;;;;;13.30;8.37;;;;;;;;;;5013412;28;20431;-80
2022/12/19 00:35:30;;;;;;;14.10;9.57;;;;;;;;;;5013456;28;20408;-81
2022/12/19 00:37:57;;;;;;;8.37;6.03;;;;;;;;;;5013391;28;20774;-81
2022/12/19 00:40:23;;;;;;;8.63;5.77;;;;;;;;;;5012825;28;20569;-81
2022/12/19 00:42:48;;;;;;;12.03;6.57;;;;;;;;;;5027155;28;20413;-81
2022/12/19 00:45:14;;;;;;;10.90;5.70;;;;;;;;;;5028428;28;20432;-80
2022/12/19 00:47:40;;;;;;;14.10;7.40;;;;;;;;;;5027660;28;20444;-80
2022/12/19 00:50:07;;;;;;;10.00;6.63;;;;;;;;;;5028345;28;20503;-80
2022/12/19 00:52:32;;;;;;;13.00;8.07;;;;;;;;;;5028435;28;20775;-80
2022/12/19 00:54:58;;;;;;;9.40;5.47;;;;;;;;;;5028065;28;20424;-80
2022/12/19 00:57:24;;;;;;;14.33;8.53;;;;;;;;;;5027993;28;20477;-81
2022/12/19 00:59:50;;;;;;;16.50;8.27;;;;;;;;;;5013924;28;20791;-81
2022/12/19 01:02:16;;;;;;;10.40;7.50;;;;;;;;;;5028557;28;20419;-80
2022/12/19 01:04:42;;;;;;;8.13;6.30;;;;;;;;;;5012627;28;20508;-81
2022/12/19 01:07:09;;;;;;;12.77;7.60;;;;;;;;;;5028173;28;20458;-81
2022/12/19 01:09:35;;;;;;;14.00;7.13;;;;;;;;;;5027678;28;20431;-80
2022/12/19 01:14:48;;;;;;;8.17;4.77;;;;;;;;;;5000463;28;20915;-80
2022/12/19 01:17:14;;;;;;;8.23;4.90;;;;;;;;;;5027926;28;20426;-80
2022/12/19 01:19:39;;;;;;;10.23;6.47;;;;;;;;;;4986327;28;20521;-80
2022/12/19 01:22:05;;;;;;;11.17;6.10;;;;;;;;;;5027971;28;20420;-80
2022/12/19 01:24:31;;;;;;;11.07;7.60;;;;;;;;;;5027487;28;20494;-81
2022/12/19 01:26:57;;;;;;;9.87;6.03;;;;;;;;;;5027928;28;20479;-80
2022/12/19 01:29:23;;;;;;;15.93;8.20;;;;;;;;;;5027929;28;20421;-83
2022/12/19 01:31:49;;;;;;;7.93;4.60;;;;;;;;;;5012729;28;20420;-83
2022/12/19 01:34:15;;;;;;;9.53;5.83;;;;;;;;;;5027805;28;20414;-83
2022/12/19 01:36:41;;;;;;;13.80;8.00;;;;;;;;;;5027909;28;20414;-83
2022/12/19 01:39:07;;;;;;;17.57;9.43;;;;;;;;;;5027489;28;20420;-83
2022/12/19 01:41:34;;;;;;;16.83;7.93;;;;;;;;;;5027672;28;20515;-83
2022/12/19 01:44:01;;;;;;;7.20;5.10;;;;;;;;;;5027001;28;20952;-82
2022/12/19 01:46:40;;;;;;;12.50;6.73;;;;;;;;;;5012460;28;20406;-83
2022/12/19 01:49:09;;;;;;;10.93;6.03;;;;;;;;;;5026948;28;20439;-83
2022/12/19 01:51:42;;;;;;;8.73;6.50;;;;;;;;;;5027742;28;20477;-83
2022/12/19 01:54:09;;;;;;;8.17;5.53;;;;;;;;;;5027322;28;20424;-83
2022/12/19 01:56:38;;;;;;;11.30;6.27;;;;;;;;;;5012559;28;20418;-83
2022/12/19 01:59:06;;;;;;;8.97;5.83;;;;;;;;;;5027602;28;20444;-82
2022/12/19 02:01:32;;;;;;;9.90;5.27;;;;;;;;;;5027387;28;20433;-84
2022/12/19 02:03:59;;;;;;;6.23;5.50;;;;;;;;;;5027387;28;20485;-83
2022/12/19 02:06:25;;;;;;;8.00;5.50;;;;;;;;;;5012708;28;20408;-83
2022/12/19 02:08:51;;;;;;;8.77;7.13;;;;;;;;;;5012019;28;20555;-82
2022/12/19 02:11:17;;;;;;;8.97;4.87;;;;;;;;;;5027384;28;20434;-83
2022/12/19 02:13:43;;;;;;;14.43;7.00;;;;;;;;;;5027403;28;20434;-83
2022/12/19 02:16:12;;;;;;;5.50;3.83;;;;;;;;;;5027375;28;20486;-82
2022/12/19 02:18:53;;;;;;;10.13;7.00;;;;;;;;;;5031177;28;20432;-82
2022/12/19 02:21:19;;;;;;;16.73;9.03;;;;;;;;;;5030037;28;20421;-84
2022/12/19 02:23:58;;;;;;;13.47;9.03;;;;;;;;;;5030618;28;20479;-85
2022/12/19 02:26:27;;;;;;;12.23;6.13;;;;;;;;;;5031186;28;20871;-83
2022/12/19 02:29:05;;;;;;;8.70;5.07;;;;;;;;;;5031750;28;20464;-83
2022/12/19 02:31:31;;;;;;;6.90;4.07;;;;;;;;;;5031144;28;20897;-83
2022/12/19 02:34:20;;;;;;;7.33;5.63;;;;;;;;;;5030888;28;20452;-83
2022/12/19 02:36:50;;;;;;;10.33;5.30;;;;;;;;;;4987158;28;20425;-83
2022/12/19 02:39:30;;;;;;;8.50;6.07;;;;;;;;;;5030355;28;20444;-84
2022/12/19 02:41:56;;;;;;;9.13;6.67;;;;;;;;;;5030857;28;20722;-83
2022/12/19 02:44:31;;;;;;;17.07;7.63;;;;;;;;;;5030010;28;20614;-83
2022/12/19 02:46:58;;;;;;;4.13;3.73;;;;;;;;;;5030441;28;20461;-83
2022/12/19 02:49:24;;;;;;;9.13;6.73;;;;;;;;;;5030094;28;20427;-84
2022/12/19 02:51:50;;;;;;;9.63;5.33;;;;;;;;;;5030551;28;20424;-83
2022/12/19 02:54:16;;;;;;;12.80;6.70;;;;;;;;;;5030097;28;20780;-84
2022/12/19 02:56:49;;;;;;;17.37;7.57;;;;;;;;;;5015286;28;20420;-84
2022/12/19 02:59:21;;;;;;;18.17;9.73;;;;;;;;;;5015123;28;20494;-84
2022/12/19 03:01:49;;;;;;;7.30;5.07;;;;;;;;;;5030473;28;20444;-84
2022/12/19 03:04:35;;;;;;;11.93;6.10;;;;;;;;;;5014960;28;20566;-84
2022/12/19 03:07:01;;;;;;;14.53;9.17;;;;;;;;;;5030298;28;20536;-83
2022/12/19 03:09:26;;;;;;;11.20;6.37;;;;;;;;;;5014682;28;20448;-84
2022/12/19 03:11:57;;;;;;;15.17;9.00;;;;;;;;;;5015047;28;20417;-82
2022/12/19 03:14:23;;;;;;;10.83;6.77;;;;;;;;;;5014087;28;20477;-83
2022/12/19 03:16:49;;;;;;;10.80;8.07;;;;;;;;;;5014830;28;20411;-83
2022/12/19 03:19:15;;;;;;;17.30;8.30;;;;;;;;;;5014137;28;20493;-83
2022/12/19 03:21:48;;;;;;;16.20;7.13;;;;;;;;;;5030056;28;20424;-83
2022/12/19 03:24:15;;;;;;;13.77;7.03;;;;;;;;;;5014374;28;20471;-82
2022/12/19 03:26:45;;;;;;;14.77;5.70;;;;;;;;;;5029756;28;20430;-83
2022/12/19 03:29:30;;;;;;;11.40;6.20;;;;;;;;;;5029932;28;20420;-84
2022/12/19 03:31:56;;;;;;;11.10;6.57;;;;;;;;;;5014566;28;20470;-82
2022/12/19 03:34:38;;;;;;;9.90;7.10;;;;;;;;;;5029794;28;20421;-83
2022/12/19 03:37:05;;;;;;;7.43;6.73;;;;;;;;;;5014352;28;20508;-82
2022/12/19 03:39:32;;;;;;;15.33;8.17;;;;;;;;;;5029320;28;21086;-82
2022/12/19 03:44:43;;;;;;;11.03;4.83;;;;;;;;;;5013636;28;20510;-82
2022/12/19 03:47:17;;;;;;;9.27;5.93;;;;;;;;;;5029502;28;20454;-82
2022/12/19 03:49:44;;;;;;;15.37;6.27;;;;;;;;;;5013633;28;20437;-83
2022/12/19 03:52:30;;;;;;;16.63;7.63;;;;;;;;;;5029675;28;20428;-83
2022/12/19 03:55:02;;;;;;;9.60;5.57;;;;;;;;;;5014399;28;20818;-83
2022/12/19 03:57:32;;;;;;;9.37;5.97;;;;;;;;;;5014098;28;20422;-83
2022/12/19 04:00:05;;;;;;;10.10;6.00;;;;;;;;;;5029317;28;20424;-83
2022/12/19 04:02:33;;;;;;;10.63;7.17;;;;;;;;;;5014041;28;20424;-83
2022/12/19 04:05:02;;;;;;;13.23;7.70;;;;;;;;;;5013937;28;20475;-83
2022/12/19 04:07:28;;;;;;;6.87;4.40;;;;;;;;;;5029090;28;20987;-83
2022/12/19 04:09:55;;;;;;;9.50;5.67;;;;;;;;;;5028855;28;20832;-84
2022/12/19 04:12:24;;;;;;;12.30;6.63;;;;;;;;;;5029142;28;20420;-84
2022/12/19 04:14:50;;;;;;;11.80;8.13;;;;;;;;;;5028368;28;20482;-83
2022/12/19 04:17:28;;;;;;;11.03;7.87;;;;;;;;;;5029056;28;20430;-83
2022/12/19 04:19:59;;;;;;;4.23;2.73;;;;;;;;;;5028403;28;20804;-83
2022/12/19 04:22:28;;;;;;;8.60;6.63;;;;;;;;;;5013921;28;20494;-83
2022/12/19 04:24:57;;;;;;;10.50;8.20;;;;;;;;;;5028601;28;20510;-83
2022/12/19 04:27:23;;;;;;;7.47;6.17;;;;;;;;;;5013747;28;20912;-83
2022/12/19 04:29:51;;;;;;;10.83;5.43;;;;;;;;;;5028931;28;20508;-83
2022/12/19 04:32:18;;;;;;;10.53;6.47;;;;;;;;;;5013847;28;20776;-82
2022/12/19 04:34:44;;;;;;;8.53;4.60;;;;;;;;;;5028663;28;20428;-83
2022/12/19 04:37:11;;;;;;;13.97;7.20;;;;;;;;;;5012042;28;20425;-83
2022/12/19 04:39:37;;;;;;;11.80;6.47;;;;;;;;;;5027592;28;20455;-83
2022/12/19 04:42:02;;;;;;;11.63;7.70;;;;;;;;;;5028512;28;20419;-83
2022/12/19 04:44:28;;;;;;;20.80;7.73;;;;;;;;;;5027766;28;20489;-83
2022/12/19 04:46:54;;;;;;;16.20;7.50;;;;;;;;;;5028325;28;20425;-83
2022/12/19 04:49:20;;;;;;;7.70;6.60;;;;;;;;;;5027660;28;20429;-83
2022/12/19 04:51:46;;;;;;;7.83;5.43;;;;;;;;;;5028272;28;20420;-83
2022/12/19 04:54:12;;;;;;;11.57;5.57;;;;;;;;;;5028021;28;20425;-83
2022/12/19 04:56:38;;;;;;;15.53;9.30;;;;;;;;;;5028376;28;20903;-82
2022/12/19 04:59:04;;;;;;;7.00;5.47;;;;;;;;;;5028263;28;20429;-82
2022/12/19 05:01:30;;;;;;;12.50;7.33;;;;;;;;;;5028209;28;20788;-82
2022/12/19 05:03:57;;;;;;;9.20;5.40;;;;;;;;;;5011584;28;20524;-82
2022/12/19 05:06:22;;;;;;;10.77;8.07;;;;;;;;;;5028081;28;20459;-82
2022/12/19 05:08:50;;;;;;;7.00;5.83;;;;;;;;;;5027710;28;20430;-83
2022/12/19 05:11:17;;;;;;;7.83;3.97;;;;;;;;;;5011647;28;20430;-83
2022/12/19 05:13:44;;;;;;;10.37;6.93;;;;;;;;;;5027931;28;20865;-82
2022/12/19 05:16:11;;;;;;;9.73;5.10;;;;;;;;;;5027232;28;20445;-83
2022/12/19 05:18:38;;;;;;;9.67;6.60;;;;;;;;;;5028206;28;20443;-83
2022/12/19 05:21:05;;;;;;;9.80;5.23;;;;;;;;;;4987870;28;20450;-83
2022/12/19 05:23:31;;;;;;;11.07;6.40;;;;;;;;;;5047382;28;20529;-83
2022/12/19 05:25:58;;;;;;;9.70;6.30;;;;;;;;;;5047959;28;20940;-83
2022/12/19 05:28:24;;;;;;;17.20;8.03;;;;;;;;;;5047753;28;20423;-83
2022/12/19 05:30:50;;;;;;;10.70;5.50;;;;;;;;;;5032570;28;20408;-83
2022/12/19 05:33:15;;;;;;;9.93;4.50;;;;;;;;;;5047791;28;20417;-84
2022/12/19 05:35:41;;;;;;;9.57;5.20;;;;;;;;;;5047813;28;20784;-83
2022/12/19 05:38:07;;;;;;;12.73;7.97;;;;;;;;;;5047290;28;20465;-83
2022/12/19 05:40:33;;;;;;;10.97;6.73;;;;;;;;;;5047593;28;20447;-84
2022/12/19 05:42:59;;;;;;;12.50;7.20;;;;;;;;;;5047619;28;20471;-84
2022/12/19 05:45:25;;;;;;;10.43;5.63;;;;;;;;;;5035279;28;20488;-84
2022/12/19 05:47:51;;;;;;;9.93;5.67;;;;;;;;;;5027642;28;20420;-83
2022/12/19 05:50:17;;;;;;;11.07;7.03;;;;;;;;;;5011891;28;20432;-83
2022/12/19 05:52:44;;;;;;;11.33;5.23;;;;;;;;;;5030953;28;20615;-83
2022/12/19 05:55:10;;;;;;;9.53;6.90;;;;;;;;;;5031178;28;20933;-83
2022/12/19 05:57:36;;;;;;;8.00;5.00;;;;;;;;;;5031698;28;20422;-83
2022/12/19 06:00:03;;;;;;;5.73;3.83;;;;;;;;;;5031605;28;20531;-82
2022/12/19 06:02:32;;;;;;;9.53;6.80;;;;;;;;;;5016151;28;20414;-81
2022/12/19 06:04:58;;;;;;;11.60;7.10;;;;;;;;;;5031325;28;20482;-82
2022/12/19 06:07:24;;;;;;;13.77;6.50;;;;;;;;;;5031309;28;20505;-82
2022/12/19 06:09:49;;;;;;;12.13;7.40;;;;;;;;;;5030886;28;20731;-82
2022/12/19 06:12:15;;;;;;;12.97;5.93;;;;;;;;;;5016093;28;20885;-81
2022/12/19 06:14:41;;;;;;;6.93;4.83;;;;;;;;;;5030301;28;20477;-83
2022/12/19 06:17:07;;;;;;;9.50;5.07;;;;;;;;;;5031087;28;20429;-83
2022/12/19 06:19:33;;;;;;;11.20;7.10;;;;;;;;;;5029785;28;20483;-83
2022/12/19 06:21:59;;;;;;;9.93;5.53;;;;;;;;;;5030627;28;20417;-84
2022/12/19 06:24:25;;;;;;;6.47;3.73;;;;;;;;;;5030709;28;20575;-84
2022/12/19 06:26:51;;;;;;;7.53;6.37;;;;;;;;;;4976342;28;20976;-84
2022/12/19 06:29:17;;;;;;;6.10;5.07;;;;;;;;;;5030604;28;20845;-84
2022/12/19 06:31:43;;;;;;;10.70;7.73;;;;;;;;;;5014969;28;20410;-84
2022/12/19 06:34:09;;;;;;;10.27;7.50;;;;;;;;;;5030412;28;20425;-84
2022/12/19 06:36:35;;;;;;;10.40;5.60;;;;;;;;;;5015515;28;20779;-84
2022/12/19 06:39:01;;;;;;;7.30;4.83;;;;;;;;;;5030713;28;20438;-84
2022/12/19 06:44:12;;;;;;;7.53;4.20;;;;;;;;;;5016248;28;20476;-84
2022/12/19 06:46:39;;;;;;;7.90;3.97;;;;;;;;;;5031766;28;20417;-84
2022/12/19 06:49:08;;;;;;;11.50;7.23;;;;;;;;;;5015828;28;20564;-85
2022/12/19 06:51:34;;;;;;;11.43;6.50;;;;;;;;;;5015645;28;20777;-82
2022/12/19 06:54:00;;;;;;;10.20;7.73;;;;;;;;;;5030289;28;20829;-82
2022/12/19 06:56:26;;;;;;;10.33;7.27;;;;;;;;;;5030589;28;20462;-83
2022/12/19 06:58:51;;;;;;;16.43;7.33;;;;;;;;;;5030627;28;20421;-82
2022/12/19 07:01:24;;;;;;;10.53;6.97;;;;;;;;;;5030721;28;21025;-83
2022/12/19 07:03:50;;;;;;;9.97;7.67;;;;;;;;;;5030110;28;20474;-83
2022/12/19 07:06:17;;;;;;;8.63;6.20;;;;;;;;;;5030530;28;20424;-82
2022/12/19 07:08:43;;;;;;;12.77;7.23;;;;;;;;;;5013649;28;20540;-83
2022/12/19 07:11:09;;;;;;;11.37;5.93;;;;;;;;;;5014086;28;21005;-81
2022/12/19 07:13:35;;;;;;;8.10;5.90;;;;;;;;;;5015180;28;20409;-81
2022/12/19 07:16:02;;;;;;;12.10;6.93;;;;;;;;;;5015124;28;20516;-83
2022/12/19 07:18:30;;;;;;;9.13;6.50;;;;;;;;;;5029912;28;20758;-80
2022/12/19 07:20:56;;;;;;;6.83;4.77;;;;;;;;;;5029966;28;20427;-80
2022/12/19 07:23:22;;;;;;;9.20;5.50;;;;;;;;;;5014522;28;20477;-80
2022/12/19 07:25:48;;;;;;;10.70;5.73;;;;;;;;;;4989988;28;21250;-80
2022/12/19 07:28:14;;;;;;;12.70;8.40;;;;;;;;;;5014962;28;20511;-80
2022/12/19 07:30:40;;;;;;;8.13;6.07;;;;;;;;;;5014817;28;20460;-80
2022/12/19 07:33:06;;;;;;;13.30;6.80;;;;;;;;;;5029781;28;20426;-80
2022/12/19 07:35:32;;;;;;;9.83;6.20;;;;;;;;;;5029808;28;20432;-80
2022/12/19 07:38:02;;;;;;;8.67;5.40;;;;;;;;;;5029302;28;20481;-80
2022/12/19 07:40:31;;;;;;;10.20;6.50;;;;;;;;;;5029874;28;20402;-80
2022/12/19 07:43:04;;;;;;;10.93;6.10;;;;;;;;;;5029902;28;20431;-80
2022/12/19 07:45:30;;;;;;;11.17;4.33;;;;;;;;;;5029979;28;20429;-80
2022/12/19 07:47:59;;;;;;;7.63;4.93;;;;;;;;;;5029961;28;20453;-80
2022/12/19 07:50:25;;;;;;;12.63;7.07;;;;;;;;;;5014604;28;20484;-80
2022/12/19 07:52:51;;;;;;;11.53;6.83;;;;;;;;;;5036588;28;20908;-80
2022/12/19 07:55:17;;;;;;;10.67;5.87;;;;;;;;;;5021829;28;20429;-80
2022/12/19 07:57:43;;;;;;;7.43;4.90;;;;;;;;;;5046362;28;20901;-80
2022/12/19 08:00:09;;;;;;;7.50;5.50;;;;;;;;;;5034125;28;20417;-80
2022/12/19 08:02:35;;;;;;;7.33;5.10;;;;;;;;;;5046170;28;20941;-80
2022/12/19 08:05:01;;;;;;;9.60;5.70;;;;;;;;;;5033907;28;20513;-81
2022/12/19 08:07:27;;;;;;;12.20;7.20;;;;;;;;;;5049336;28;20428;-81
2022/12/19 08:09:53;;;;;;;9.23;5.57;;;;;;;;;;5049035;28;20418;-81
2022/12/19 08:12:19;;;;;;;10.60;7.50;;;;;;;;;;5051661;28;20417;-80
2022/12/19 08:14:45;;;;;;;13.63;6.97;;;;;;;;;;5047511;28;20567;-82
2022/12/19 08:17:11;;;;;;;9.50;5.30;;;;;;;;;;5017015;28;20891;-83
2022/12/19 08:19:37;;;;;;;8.93;5.13;;;;;;;;;;5037967;28;20458;-82
2022/12/19 08:22:03;;;;;;;12.63;6.47;;;;;;;;;;5019026;28;20910;-81
2022/12/19 08:24:29;;;;;;;9.17;5.40;;;;;;;;;;5022497;28;20476;-83
2022/12/19 08:26:55;;;;;;;11.10;5.23;;;;;;;;;;4979879;28;20424;-83
2022/12/19 08:29:21;;;;;;;9.93;5.93;;;;;;;;;;5021586;28;20496;-83
2022/12/19 08:31:47;;;;;;;9.80;5.73;;;;;;;;;;5021856;28;20510;-83
2022/12/19 08:34:13;;;;;;;10.27;6.50;;;;;;;;;;5021295;28;20457;-83
2022/12/19 08:36:39;;;;;;;7.07;5.23;;;;;;;;;;5038410;28;20399;-81
2022/12/19 08:39:06;;;;;;;10.60;7.00;;;;;;;;;;5026621;28;20850;-82
2022/12/19 08:41:32;;;;;;;10.13;5.47;;;;;;;;;;5033314;28;20398;-81
2022/12/19 08:43:59;;;;;;;11.30;6.13;;;;;;;;;;5048369;28;20507;-82
2022/12/19 08:46:25;;;;;;;10.80;5.40;;;;;;;;;;5033317;28;20827;-82
2022/12/19 08:48:52;;;;;;;7.70;6.77;;;;;;;;;;5012506;28;20415;-82
2022/12/19 08:51:18;;;;;;;7.80;4.83;;;;;;;;;;5012591;28;20464;-82
2022/12/19 08:53:45;;;;;;;9.30;7.57;;;;;;;;;;5027028;28;20461;-83
2022/12/19 08:56:12;;;;;;;12.00;7.87;;;;;;;;;;5025176;28;20426;-83
2022/12/19 08:58:38;;;;;;;8.87;6.27;;;;;;;;;;5028652;28;20466;-82
2022/12/19 09:01:07;;;;;;;10.20;5.60;;;;;;;;;;5013057;28;20841;-82
2022/12/19 09:03:33;;;;;;;6.80;3.47;;;;;;;;;;5012902;28;20465;-82
2022/12/19 09:06:00;;;;;;;9.70;7.23;;;;;;;;;;5012792;28;20485;-82
2022/12/19 09:08:27;;;;;;;15.13;7.07;;;;;;;;;;5011286;28;20902;-82
2022/12/19 09:11:13;;;;;;;10.13;5.97;;;;;;;;;;5011287;28;20416;-83
2022/12/19 09:13:40;;;;;;;11.83;6.37;;;;;;;;;;5020070;28;20487;-83
2022/12/19 09:16:19;;;;;;;12.73;7.17;;;;;;;;;;5026213;28;20441;-83
2022/12/19 09:18:46;;;;;;;10.70;8.00;;;;;;;;;;5027772;28;20429;-81
2022/12/19 09:21:12;;;;;;;9.97;6.27;;;;;;;;;;5026463;28;20822;-82
2022/12/19 09:23:39;;;;;;;11.97;5.30;;;;;;;;;;5027213;28;20461;-82
2022/12/19 09:26:07;;;;;;;12.17;6.00;;;;;;;;;;4991056;28;20461;-81
2022/12/19 09:28:34;;;;;;;15.90;6.93;;;;;;;;;;5019040;28;20409;-81
2022/12/19 09:31:04;;;;;;;7.57;5.57;;;;;;;;;;5019050;28;20417;-80
2022/12/19 09:33:31;;;;;;;13.37;8.37;;;;;;;;;;5034362;28;20813;-81
2022/12/19 09:35:57;;;;;;;9.23;5.50;;;;;;;;;;5035137;28;20419;-81
2022/12/19 09:38:24;;;;;;;13.03;7.87;;;;;;;;;;5018802;28;20426;-81
2022/12/19 09:40:56;;;;;;;10.80;6.83;;;;;;;;;;5019438;28;20489;-81
2022/12/19 09:43:42;;;;;;;14.30;7.87;;;;;;;;;;5033804;28;20468;-82
2022/12/19 09:46:15;;;;;;;10.57;6.60;;;;;;;;;;5019040;28;20836;-82
2022/12/19 09:48:41;;;;;;;19.20;7.83;;;;;;;;;;5018823;28;20463;-82
2022/12/19 09:51:16;;;;;;;8.90;6.63;;;;;;;;;;5033385;28;20414;-82
2022/12/19 09:54:02;;;;;;;16.50;7.77;;;;;;;;;;5018010;28;20424;-82
2022/12/19 09:56:29;;;;;;;14.60;7.23;;;;;;;;;;5034299;28;20423;-82
2022/12/19 09:59:00;;;;;;;11.30;5.47;;;;;;;;;;5017972;28;20436;-81
2022/12/19 10:01:29;;;;;;;11.50;7.20;;;;;;;;;;5026041;28;20414;-81
2022/12/19 10:04:01;;;;;;;11.00;7.43;;;;;;;;;;5026220;28;20476;-82
2022/12/19 10:06:29;;;;;;;13.33;7.67;;;;;;;;;;5040387;28;20425;-83
2022/12/19 10:08:55;;;;;;;15.50;7.30;;;;;;;;;;5023033;28;20410;-82
2022/12/19 10:11:27;;;;;;;12.07;6.47;;;;;;;;;;5041997;28;20419;-81
2022/12/19 10:14:18;;;;;;;14.83;7.50;;;;;;;;;;5025312;28;21039;-81
2022/12/19 10:17:11;;;;;;;10.73;7.73;;;;;;;;;;5027125;28;21675;-81
2022/12/19 10:19:59;;;;;;;11.83;6.67;;;;;;;;;;5040679;28;20406;-85
2022/12/19 10:22:50;;;;;;;16.13;8.73;;;;;;;;;;5022320;28;20413;-86
2022/12/19 10:25:16;;;;;;;13.07;7.80;;;;;;;;;;5042412;28;21010;-86
2022/12/19 10:27:51;;;;;;;9.50;6.30;;;;;;;;;;5025524;28;20449;-84
2022/12/19 10:30:18;;;;;;;15.40;7.97;;;;;;;;;;5040453;28;20440;-83
2022/12/19 10:33:00;;;;;;;10.53;6.20;;;;;;;;;;4983489;28;20421;-83
2022/12/19 10:35:30;;;;;;;15.70;8.20;;;;;;;;;;5030883;28;20426;-84
2022/12/19 10:38:04;;;;;;;9.53;6.77;;;;;;;;;;5027955;28;20520;-82
2022/12/19 10:40:33;;;;;;;13.90;7.53;;;;;;;;;;5013273;28;20766;-84
2022/12/19 10:43:02;;;;;;;11.10;6.10;;;;;;;;;;5013456;28;20681;-84
2022/12/19 10:45:32;;;;;;;8.77;5.17;;;;;;;;;;5014368;28;20542;-82
2022/12/19 10:48:03;;;;;;;12.20;6.53;;;;;;;;;;5014260;28;20412;-83
2022/12/19 10:50:29;;;;;;;14.47;8.00;;;;;;;;;;5014174;28;20511;-84
2022/12/19 10:52:58;;;;;;;11.13;6.20;;;;;;;;;;5014403;28;20798;-80
2022/12/19 10:55:33;;;;;;;8.63;4.97;;;;;;;;;;5030132;28;20514;-80
2022/12/19 10:58:01;;;;;;;9.60;5.30;;;;;;;;;;5015474;28;20643;-80
2022/12/19 11:00:28;;;;;;;13.10;6.63;;;;;;;;;;5015485;28;20456;-82
2022/12/19 11:03:06;;;;;;;9.67;5.67;;;;;;;;;;5015507;28;20793;-84
2022/12/19 11:05:49;;;;;;;10.13;5.90;;;;;;;;;;5015467;28;20453;-80
2022/12/19 11:08:17;;;;;;;11.00;5.77;;;;;;;;;;5015093;28;20419;-80
2022/12/19 11:10:48;;;;;;;7.27;4.73;;;;;;;;;;5030540;28;20943;-80
2022/12/19 11:13:19;;;;;;;14.57;6.60;;;;;;;;;;5015238;28;20411;-80
2022/12/19 11:16:04;;;;;;;9.13;6.63;;;;;;;;;;5015210;28;20515;-80
2022/12/19 11:18:34;;;;;;;10.50;6.77;;;;;;;;;;5030561;28;20911;-81
2022/12/19 11:21:05;;;;;;;13.20;7.80;;;;;;;;;;5015262;28;20443;-80
2022/12/19 11:23:31;;;;;;;13.97;7.30;;;;;;;;;;5014921;28;20516;-80
2022/12/19 11:26:01;;;;;;;10.00;7.83;;;;;;;;;;5015349;28;20418;-81
2022/12/19 11:28:30;;;;;;;12.47;7.97;;;;;;;;;;5030542;28;20424;-81
2022/12/19 11:30:58;;;;;;;9.30;6.77;;;;;;;;;;5030346;28;20429;-80
2022/12/19 11:33:24;;;;;;;10.43;6.47;;;;;;;;;;5015260;28;20423;-81
2022/12/19 11:35:51;;;;;;;10.67;5.13;;;;;;;;;;5015153;28;20411;-80
2022/12/19 11:38:20;;;;;;;11.37;5.53;;;;;;;;;;5029953;28;20466;-79
2022/12/19 11:40:52;;;;;;;9.13;6.17;;;;;;;;;;5015158;28;20502;-79
2022/12/19 11:43:29;;;;;;;11.63;6.40;;;;;;;;;;5014918;28;20454;-79
2022/12/19 11:45:58;;;;;;;14.60;6.53;;;;;;;;;;5030129;28;20418;-79
2022/12/19 11:48:31;;;;;;;10.60;6.40;;;;;;;;;;5014124;28;20416;-78
2022/12/19 11:51:09;;;;;;;11.37;6.93;;;;;;;;;;5014567;28;20406;-79
2022/12/19 11:53:43;;;;;;;11.27;7.30;;;;;;;;;;4973312;28;20423;-79
2022/12/19 11:56:14;;;;;;;12.87;7.70;;;;;;;;;;5014959;28;20914;-79
2022/12/19 11:58:40;;;;;;;12.40;7.37;;;;;;;;;;5014909;28;20515;-79
2022/12/19 12:01:10;;;;;;;13.10;6.87;;;;;;;;;;5014884;28;20911;-79
2022/12/19 12:03:57;;;;;;;13.83;7.80;;;;;;;;;;5014317;28;20454;-79
2022/12/19 12:06:23;;;;;;;13.53;7.70;;;;;;;;;;5014300;28;20790;-79
2022/12/19 12:08:58;;;;;;;13.63;6.80;;;;;;;;;;5014084;28;20408;-79
2022/12/19 12:11:38;;;;;;;19.13;8.37;;;;;;;;;;5014290;28;20438;-78
2022/12/19 12:14:04;;;;;;;13.27;7.70;;;;;;;;;;5029216;28;20548;-79
2022/12/19 12:16:41;;;;;;;14.40;7.73;;;;;;;;;;5014117;28;20514;-79
2022/12/19 12:19:16;;;;;;;11.70;7.27;;;;;;;;;;5014099;28;20650;-79
2022/12/19 12:22:02;;;;;;;17.93;10.70;;;;;;;;;;5013312;28;21142;-79
2022/12/19 12:24:31;;;;;;;12.00;7.83;;;;;;;;;;5012352;28;20485;-78
2022/12/19 12:27:16;;;;;;;9.80;5.77;;;;;;;;;;5013088;28;20543;-79
2022/12/19 12:29:45;;;;;;;11.93;6.50;;;;;;;;;;5013949;28;20418;-78
2022/12/19 12:32:30;;;;;;;14.00;6.97;;;;;;;;;;5013828;28;20455;-79
2022/12/19 12:35:05;;;;;;;15.77;7.80;;;;;;;;;;5014162;28;20460;-79
2022/12/19 12:37:40;;;;;;;14.40;7.67;;;;;;;;;;5013915;28;20406;-79
2022/12/19 12:40:32;;;;;;;12.73;7.70;;;;;;;;;;5014054;28;20975;-79
2022/12/19 12:43:17;;;;;;;11.90;6.87;;;;;;;;;;5014008;28;20418;-78
2022/12/19 12:45:44;;;;;;;12.50;7.90;;;;;;;;;;5014086;28;20457;-78
2022/12/19 12:48:20;;;;;;;10.33;5.97;;;;;;;;;;5013927;28;20494;-79
2022/12/19 12:50:47;;;;;;;12.00;7.10;;;;;;;;;;5013967;28;20410;-78
2022/12/19 12:53:16;;;;;;;13.30;7.93;;;;;;;;;;5013495;28;20477;-79
2022/12/19 12:55:43;;;;;;;11.70;7.30;;;;;;;;;;5013883;28;20418;-78
2022/12/19 12:58:27;;;;;;;14.27;8.33;;;;;;;;;;5013797;28;20402;-79
2022/12/19 13:01:10;;;;;;;21.70;16.30;;;;;;;;;;5013318;28;20424;-78
2022/12/19 13:03:36;;;;;;;20.80;15.17;;;;;;;;;;5013616;28;20455;-78
2022/12/19 13:06:06;;;;;;;16.13;12.87;;;;;;;;;;5013556;28;20740;-79
2022/12/19 13:08:44;;;;;;;60.37;31.70;;;;;;;;;;5013142;28;20448;-78
2022/12/19 13:14:33;;;;;;;27.57;14.47;;;;;;;;;;4984445;28;20928;-78
2022/12/19 13:17:03;;;;;;;25.30;13.27;;;;;;;;;;5026648;28;20432;-78
2022/12/19 13:19:38;;;;;;;22.83;12.67;;;;;;;;;;5020825;28;20415;-78
2022/12/19 13:22:06;;;;;;;35.93;17.43;;;;;;;;;;5014136;28;20416;-78
2022/12/19 13:24:51;;;;;;;39.13;17.23;;;;;;;;;;5021745;28;20472;-78
2022/12/19 13:27:17;;;;;;;65.27;30.27;;;;;;;;;;5028618;28;20421;-79
2022/12/19 13:30:06;;;;;;;31.30;14.90;;;;;;;;;;5031827;28;20400;-78
2022/12/19 13:32:52;;;;;;;44.17;23.93;;;;;;;;;;5031307;28;20996;-78
2022/12/19 13:35:18;;;;;;;51.07;27.70;;;;;;;;;;5031398;28;20405;-79
2022/12/19 13:37:45;;;;;;;25.60;14.17;;;;;;;;;;5031413;28;20450;-78
2022/12/19 13:40:14;;;;;;;18.73;12.10;;;;;;;;;;5031777;28;20420;-78
2022/12/19 13:45:48;;;;;;;35.00;20.43;;;;;;;;;;5021692;28;20425;-82
2022/12/19 13:48:15;;;;;;;22.90;13.80;;;;;;;;;;5009575;28;20449;-83
2022/12/19 13:50:41;;;;;;;8.67;6.60;;;;;;;;;;5010999;28;20448;-84
2022/12/19 13:53:18;;;;;;;9.70;7.47;;;;;;;;;;5026761;28;20424;-84
2022/12/19 13:55:44;;;;;;;13.33;8.93;;;;;;;;;;5027060;28;21140;-83
2022/12/19 13:58:30;;;;;;;12.20;9.40;;;;;;;;;;5026989;28;20429;-85
2022/12/19 14:00:57;;;;;;;19.20;12.97;;;;;;;;;;5011672;28;20418;-84
2022/12/19 14:03:31;;;;;;;12.20;7.00;;;;;;;;;;5012445;28;20519;-86
2022/12/19 14:05:59;;;;;;;20.13;13.67;;;;;;;;;;5027233;28;20533;-85
2022/12/19 14:08:27;;;;;;;13.37;8.67;;;;;;;;;;5026656;28;20417;-84
2022/12/19 14:10:53;;;;;;;13.50;7.77;;;;;;;;;;5027734;28;20444;-84
2022/12/19 14:16:25;;;;;;;11.53;7.30;;;;;;;;;;4976138;28;20452;-84
2022/12/19 14:18:54;;;;;;;16.17;8.80;;;;;;;;;;4959338;28;20875;-87
2022/12/19 14:21:22;;;;;;;11.90;6.13;;;;;;;;;;4995616;28;20514;-86
2022/12/19 14:23:48;;;;;;;14.40;10.47;;;;;;;;;;5015861;28;20452;-79
2022/12/19 14:26:21;;;;;;;13.50;8.80;;;;;;;;;;5016114;28;20854;-79
2022/12/19 14:28:51;;;;;;;9.90;6.37;;;;;;;;;;5031576;28;20465;-79
2022/12/19 14:31:24;;;;;;;14.50;8.10;;;;;;;;;;5016037;28;20475;-80
2022/12/19 14:33:51;;;;;;;12.03;7.07;;;;;;;;;;5031374;28;20518;-80
2022/12/19 14:36:28;;;;;;;11.13;6.70;;;;;;;;;;5015799;28;20420;-80
2022/12/19 14:38:54;;;;;;;13.43;8.50;;;;;;;;;;5015507;28;20510;-80
2022/12/19 14:44:19;;;;;;;14.10;9.17;;;;;;;;;;5015890;28;20565;-79
2022/12/19 14:47:00;;;;;;;20.77;15.10;;;;;;;;;;5026284;28;20925;-80
2022/12/19 14:49:30;;;;;;;15.63;8.67;;;;;;;;;;5019726;28;20425;-80
2022/12/19 14:51:56;;;;;;;10.33;6.70;;;;;;;;;;5024510;28;20923;-80
2022/12/19 14:54:25;;;;;;;15.57;9.70;;;;;;;;;;5019431;28;20412;-79
2022/12/19 14:56:53;;;;;;;19.67;10.70;;;;;;;;;;5026183;28;20907;-80
2022/12/19 14:59:22;;;;;;;23.03;14.60;;;;;;;;;;5017001;28;20414;-80
2022/12/19 15:01:52;;;;;;;18.03;11.20;;;;;;;;;;5015488;28;20929;-81
2022/12/19 15:04:21;;;;;;;13.00;6.70;;;;;;;;;;5015912;28;20438;-79
2022/12/19 15:06:47;;;;;;;10.20;6.70;;;;;;;;;;5031937;28;20826;-79